createdAt,value
2023-10-17T00:02:24.611Z,7.00
2023-10-17T00:04:51.173Z,6.00
2023-10-17T00:07:17.700Z,6.67
2023-10-17T00:09:44.117Z,5.67
2023-10-17T00:12:10.556Z,6.00
2023-10-17T00:17:21.003Z,6.00
2023-10-17T00:19:47.438Z,7.00
2023-10-17T00:22:14.098Z,5.67
2023-10-17T00:24:40.531Z,6.00
2023-10-17T00:27:07.028Z,6.33
2023-10-17T00:32:17.470Z,4.33
2023-10-17T00:34:43.892Z,5.00
2023-10-17T00:37:10.328Z,5.00
2023-10-17T00:39:36.769Z,5.00
2023-10-17T00:42:03.229Z,6.00
2023-10-17T00:44:29.684Z,5.33
2023-10-17T00:46:56.089Z,5.33
2023-10-17T00:49:22.533Z,5.00
2023-10-17T00:51:48.955Z,6.33
2023-10-17T00:54:15.425Z,6.00
2023-10-17T00:56:41.889Z,5.33
2023-10-17T00:59:08.331Z,4.67
2023-10-17T01:01:34.791Z,5.00
2023-10-17T01:04:01.177Z,4.00
2023-10-17T01:06:27.676Z,6.00
2023-10-17T01:08:54.174Z,6.00
2023-10-17T01:11:20.639Z,4.67
2023-10-17T01:13:47.092Z,3.00
2023-10-17T01:16:13.501Z,7.00
2023-10-17T01:18:39.981Z,5.00
2023-10-17T01:21:06.520Z,6.00
2023-10-17T01:23:33.026Z,5.00
2023-10-17T01:25:59.445Z,4.00
2023-10-17T01:28:25.878Z,4.67
2023-10-17T01:30:52.327Z,5.33
2023-10-17T01:33:18.881Z,3.00
2023-10-17T01:35:45.323Z,5.33
2023-10-17T01:38:11.772Z,6.33
2023-10-17T01:40:38.216Z,5.00
2023-10-17T01:43:04.666Z,6.00
2023-10-17T01:45:31.291Z,5.00
2023-10-17T01:50:41.914Z,5.67
2023-10-17T01:53:08.340Z,5.00
2023-10-17T01:55:34.740Z,5.67
2023-10-17T01:58:01.380Z,5.00
2023-10-17T02:00:27.889Z,6.67
2023-10-17T02:05:38.285Z,6.00
2023-10-17T02:08:04.705Z,5.67
2023-10-17T02:10:31.270Z,5.00
2023-10-17T02:12:57.740Z,5.00
2023-10-17T02:15:24.192Z,7.00
2023-10-17T02:20:34.493Z,5.00
2023-10-17T02:23:00.932Z,6.33
2023-10-17T02:25:27.366Z,4.67
2023-10-17T02:27:53.804Z,6.00
2023-10-17T02:30:20.348Z,6.00
2023-10-17T02:35:30.498Z,5.00
2023-10-17T02:37:56.942Z,5.00
2023-10-17T02:40:23.360Z,6.00
2023-10-17T02:42:49.769Z,7.33
2023-10-17T02:45:16.273Z,7.00
2023-10-17T02:50:27.874Z,19.50
2023-10-17T02:52:54.430Z,13.50
2023-10-17T02:55:21.897Z,24.00
2023-10-17T02:57:48.398Z,21.00
2023-10-17T03:00:14.885Z,14.50
2023-10-17T03:05:28.106Z,21.00
2023-10-17T03:07:54.730Z,38.00
2023-10-17T03:10:21.278Z,21.50
2023-10-17T03:12:47.840Z,50.50
2023-10-17T03:15:14.439Z,46.50
2023-10-17T03:20:26.181Z,32.00
2023-10-17T03:22:52.764Z,27.50
2023-10-17T03:25:20.353Z,42.00
2023-10-17T03:27:47.865Z,42.67
2023-10-17T03:30:15.356Z,27.00
2023-10-17T03:35:25.712Z,23.00
2023-10-17T03:37:53.063Z,16.50
2023-10-17T03:40:19.784Z,19.50
2023-10-17T03:42:46.329Z,16.50
2023-10-17T03:45:13.905Z,14.33
2023-10-17T03:50:26.566Z,12.00
2023-10-17T03:52:56.145Z,12.33
2023-10-17T03:55:24.860Z,12.40
2023-10-17T03:57:51.340Z,13.00
2023-10-17T04:00:18.914Z,39.00
2023-10-17T04:05:29.542Z,26.00
2023-10-17T04:07:57.007Z,21.67
2023-10-17T04:10:24.422Z,16.67
2023-10-17T04:12:51.888Z,23.00
2023-10-17T04:15:19.593Z,19.33
2023-10-17T04:20:31.954Z,13.33
2023-10-17T04:23:01.982Z,13.71
2023-10-17T04:25:30.353Z,14.00
2023-10-17T04:27:56.845Z,13.00
2023-10-17T04:30:23.393Z,10.50
2023-10-17T04:32:49.965Z,12.00
2023-10-17T04:35:16.503Z,13.00
2023-10-17T04:37:42.985Z,10.33
2023-10-17T04:40:09.496Z,9.50
2023-10-17T04:42:36.006Z,9.50
2023-10-17T04:45:02.574Z,9.00
2023-10-17T04:47:29.074Z,9.00
2023-10-17T04:49:55.537Z,6.67
2023-10-17T04:52:21.970Z,8.00
2023-10-17T04:54:49.289Z,10.75
2023-10-17T04:57:15.769Z,8.67
2023-10-17T04:59:42.269Z,9.33
2023-10-17T05:02:08.795Z,9.00
2023-10-17T05:04:35.574Z,9.00
2023-10-17T05:07:03.155Z,10.25
2023-10-17T05:09:29.955Z,8.00
2023-10-17T05:11:57.316Z,8.25
2023-10-17T05:14:23.765Z,8.00
2023-10-17T05:16:50.212Z,8.00
2023-10-17T05:19:17.554Z,8.00
2023-10-17T05:21:44.971Z,8.00
2023-10-17T05:24:11.545Z,9.00
2023-10-17T05:26:37.998Z,7.00
2023-10-17T05:29:11.981Z,8.25
2023-10-17T05:31:39.278Z,9.33
2023-10-17T05:34:05.797Z,9.00
2023-10-17T05:36:32.303Z,7.33
2023-10-17T05:38:59.623Z,9.25
2023-10-17T05:41:26.116Z,9.00
2023-10-17T05:43:53.451Z,11.00
2023-10-17T05:46:19.974Z,12.00
2023-10-17T05:48:46.508Z,10.00
2023-10-17T05:54:04.720Z,11.50
2023-10-17T05:56:36.608Z,10.40
2023-10-17T05:59:03.129Z,11.00
2023-10-17T06:01:30.493Z,10.00
2023-10-17T06:03:57.168Z,9.50
2023-10-17T06:09:09.729Z,10.00
2023-10-17T06:11:37.046Z,10.25
2023-10-17T06:14:03.566Z,9.33
2023-10-17T06:16:30.068Z,9.33
2023-10-17T06:18:56.651Z,8.67
2023-10-17T06:24:09.606Z,11.50
2023-10-17T06:26:38.440Z,8.50
2023-10-17T06:29:04.972Z,11.00
2023-10-17T06:31:32.371Z,10.25
2023-10-17T06:33:58.934Z,10.00
2023-10-17T06:39:10.197Z,10.25
2023-10-17T06:41:37.573Z,11.25
2023-10-17T06:44:04.025Z,9.33
2023-10-17T06:46:31.522Z,10.00
2023-10-17T06:48:58.092Z,9.67
2023-10-17T06:54:12.167Z,13.00
2023-10-17T06:56:39.509Z,16.00
2023-10-17T06:59:08.794Z,13.33
2023-10-17T07:01:35.416Z,14.00
2023-10-17T07:04:02.188Z,14.00
2023-10-17T07:09:12.589Z,13.00
2023-10-17T07:11:39.920Z,15.00
2023-10-17T07:14:07.010Z,25.00
2023-10-17T07:16:34.275Z,36.00
2023-10-17T07:19:02.120Z,22.67
2023-10-17T07:24:13.568Z,18.00
2023-10-17T07:26:40.932Z,15.00
2023-10-17T07:29:08.286Z,15.00
2023-10-17T07:31:34.923Z,14.50
2023-10-17T07:34:01.491Z,13.00
2023-10-17T07:39:13.957Z,21.00
2023-10-17T07:41:40.544Z,21.00
2023-10-17T07:44:07.139Z,19.00
2023-10-17T07:46:33.776Z,29.00
2023-10-17T07:49:00.391Z,39.00
2023-10-17T07:54:12.124Z,25.00
2023-10-17T07:56:38.686Z,23.00
2023-10-17T07:59:06.132Z,18.00
2023-10-17T08:01:33.859Z,22.67
2023-10-17T08:04:01.382Z,19.00
2023-10-17T08:09:16.236Z,34.67
2023-10-17T08:11:46.814Z,23.00
2023-10-17T08:14:13.353Z,19.00
2023-10-17T08:16:40.020Z,14.50
2023-10-17T08:19:07.573Z,16.00
2023-10-17T08:24:19.059Z,11.00
2023-10-17T08:26:46.402Z,15.33
2023-10-17T08:29:13.871Z,24.50
2023-10-17T08:31:40.887Z,15.50
2023-10-17T08:34:07.489Z,13.00
2023-10-17T08:36:34.052Z,13.00
2023-10-17T08:39:00.529Z,8.33
2023-10-17T08:41:27.878Z,10.50
2023-10-17T08:43:54.426Z,10.00
2023-10-17T08:46:21.098Z,10.00
2023-10-17T08:48:47.611Z,9.50
2023-10-17T08:51:28.231Z,10.25
2023-10-17T08:53:56.503Z,9.50
2023-10-17T08:56:25.779Z,10.67
2023-10-17T08:58:55.774Z,12.57
2023-10-17T09:01:25.819Z,12.43
2023-10-17T09:03:52.404Z,14.00
2023-10-17T09:06:18.917Z,11.00
2023-10-17T09:08:45.443Z,12.50
2023-10-17T09:11:11.992Z,11.50
2023-10-17T09:13:38.532Z,9.50
2023-10-17T09:16:05.065Z,11.50
2023-10-17T09:18:31.623Z,11.00
2023-10-17T09:20:58.154Z,9.50
2023-10-17T09:23:27.420Z,11.17
2023-10-17T09:25:53.897Z,12.50
2023-10-17T09:28:21.195Z,9.00
2023-10-17T09:30:48.583Z,6.50
2023-10-17T09:33:15.242Z,10.00
2023-10-17T09:35:44.606Z,11.33
2023-10-17T09:38:11.098Z,11.50
2023-10-17T09:40:43.342Z,12.50
2023-10-17T09:43:15.401Z,10.00
2023-10-17T09:45:45.069Z,9.33
2023-10-17T09:48:12.714Z,9.75
2023-10-17T09:50:39.651Z,10.00
2023-10-17T09:53:06.361Z,10.00
2023-10-17T09:55:32.796Z,8.00
2023-10-17T09:57:59.299Z,9.00
2023-10-17T10:00:25.994Z,8.50
2023-10-17T10:03:04.767Z,8.75
2023-10-17T10:05:35.494Z,9.00
2023-10-17T10:08:01.980Z,8.50
2023-10-17T10:13:13.340Z,8.00
2023-10-17T10:15:39.873Z,10.50
2023-10-17T10:18:09.276Z,10.00
2023-10-17T10:20:35.773Z,11.00
2023-10-17T10:23:02.218Z,8.33
2023-10-17T10:28:13.653Z,9.67
2023-10-17T10:30:41.061Z,9.00
2023-10-17T10:33:07.558Z,8.00
2023-10-17T10:35:34.143Z,8.00
2023-10-17T10:38:00.680Z,12.00
2023-10-17T10:43:21.120Z,10.00
2023-10-17T10:45:47.737Z,8.00
2023-10-17T10:48:14.316Z,8.67
2023-10-17T10:50:40.907Z,8.33
2023-10-17T10:53:07.420Z,8.67
2023-10-17T10:58:17.676Z,7.67
2023-10-17T11:00:44.329Z,8.00
2023-10-17T11:03:10.883Z,6.00
2023-10-17T11:05:37.375Z,5.67
2023-10-17T11:08:03.798Z,6.00
2023-10-17T11:13:15.107Z,7.50
2023-10-17T11:15:41.646Z,6.00
2023-10-17T11:18:08.654Z,8.00
2023-10-17T11:20:35.458Z,6.67
2023-10-17T11:23:01.883Z,6.00
2023-10-17T11:28:13.008Z,4.50
2023-10-17T11:30:39.492Z,5.00
2023-10-17T11:33:06.019Z,3.00
2023-10-17T11:35:32.454Z,5.00
2023-10-17T11:38:06.799Z,5.00
2023-10-17T11:43:18.515Z,5.33
2023-10-17T11:45:45.101Z,4.00
2023-10-17T11:48:11.612Z,4.00
2023-10-17T11:50:38.067Z,4.00
2023-10-17T11:53:04.531Z,4.33
2023-10-17T11:58:14.623Z,5.00
2023-10-17T12:00:41.089Z,3.00
2023-10-17T12:03:07.552Z,4.00
2023-10-17T12:05:34.010Z,4.67
2023-10-17T12:08:00.441Z,3.00
2023-10-17T12:13:11.607Z,3.50
2023-10-17T12:15:38.106Z,3.33
2023-10-17T12:18:04.671Z,3.33
2023-10-17T12:20:31.460Z,4.00
2023-10-17T12:22:57.932Z,4.00
2023-10-17T12:28:08.160Z,3.00
2023-10-17T12:30:34.607Z,5.67
2023-10-17T12:33:01.070Z,4.33
2023-10-17T12:35:27.527Z,2.67
2023-10-17T12:37:53.975Z,3.00
2023-10-17T12:43:04.172Z,2.00
2023-10-17T12:45:30.628Z,4.00
2023-10-17T12:47:57.100Z,3.33
2023-10-17T12:50:23.555Z,3.33
2023-10-17T12:52:49.960Z,3.00
2023-10-17T12:55:16.415Z,4.33
2023-10-17T12:57:42.887Z,4.00
2023-10-17T13:00:11.886Z,4.00
2023-10-17T13:02:38.376Z,3.00
2023-10-17T13:05:04.946Z,4.67
2023-10-17T13:07:31.387Z,4.67
2023-10-17T13:09:57.854Z,3.00
2023-10-17T13:12:24.350Z,3.00
2023-10-17T13:14:50.825Z,4.00
2023-10-17T13:17:17.266Z,3.00
2023-10-17T13:19:43.663Z,3.00
2023-10-17T13:22:10.091Z,3.67
2023-10-17T13:24:36.529Z,3.00
2023-10-17T13:27:18.970Z,3.00
2023-10-17T13:29:46.845Z,3.00
2023-10-17T13:32:13.342Z,3.00
2023-10-17T13:34:40.114Z,3.00
2023-10-17T13:37:06.549Z,3.00
2023-10-17T13:39:33.020Z,4.33
2023-10-17T13:41:59.482Z,3.00
2023-10-17T13:44:25.921Z,3.00
2023-10-17T13:46:52.457Z,4.00
2023-10-17T13:49:18.928Z,2.67
2023-10-17T13:51:45.382Z,3.67
2023-10-17T13:54:12.705Z,2.00
2023-10-17T13:56:39.131Z,3.00
2023-10-17T13:59:05.581Z,3.00
2023-10-17T14:01:32.059Z,3.00
2023-10-17T14:03:58.619Z,3.00
2023-10-17T14:06:25.173Z,3.00
2023-10-17T14:08:51.657Z,4.00
2023-10-17T14:11:18.173Z,1.67
2023-10-17T14:16:28.749Z,3.67
2023-10-17T14:18:55.234Z,4.33
2023-10-17T14:21:21.755Z,4.00
2023-10-17T14:23:48.184Z,3.00
2023-10-17T14:26:14.587Z,3.00
2023-10-17T14:31:25.118Z,3.33
2023-10-17T14:33:51.610Z,3.33
2023-10-17T14:36:18.163Z,3.00
2023-10-17T14:38:44.575Z,3.00
2023-10-17T14:41:10.972Z,3.00
2023-10-17T14:46:21.594Z,3.33
2023-10-17T14:48:48.276Z,4.33
2023-10-17T14:51:14.845Z,3.00
2023-10-17T14:53:50.290Z,4.00
2023-10-17T14:56:18.077Z,4.00
2023-10-17T15:01:28.317Z,3.33
2023-10-17T15:03:54.847Z,3.00
2023-10-17T15:06:22.287Z,3.00
2023-10-17T15:08:48.806Z,3.00
2023-10-17T15:11:15.248Z,3.33
2023-10-17T15:16:25.985Z,3.33
2023-10-17T15:18:52.521Z,3.67
2023-10-17T15:21:19.041Z,3.00
2023-10-17T15:23:45.485Z,4.00
2023-10-17T15:26:12.807Z,4.00
2023-10-17T15:31:23.141Z,4.00
2023-10-17T15:33:49.651Z,2.00
2023-10-17T15:36:16.212Z,5.00
2023-10-17T15:38:42.654Z,2.67
2023-10-17T15:41:09.940Z,3.00
2023-10-17T15:46:20.443Z,3.33
2023-10-17T15:48:46.946Z,4.67
2023-10-17T15:51:13.378Z,5.00
2023-10-17T15:53:39.915Z,3.67
2023-10-17T15:56:06.390Z,4.00
2023-10-17T16:01:16.978Z,5.00
2023-10-17T16:03:43.435Z,3.00
2023-10-17T16:06:09.948Z,3.00
2023-10-17T16:08:36.413Z,4.33
2023-10-17T16:11:05.618Z,0.00
2023-10-17T16:16:15.925Z,1.00
2023-10-17T16:18:42.463Z,4.00
2023-10-17T16:21:08.937Z,5.00
2023-10-17T16:23:35.332Z,3.33
2023-10-17T16:26:01.729Z,4.67
2023-10-17T16:31:12.269Z,5.00
2023-10-17T16:33:38.914Z,4.33
2023-10-17T16:36:05.423Z,3.67
2023-10-17T16:38:32.124Z,4.67
2023-10-17T16:40:58.744Z,4.33
2023-10-17T16:43:25.185Z,4.33
2023-10-17T16:45:51.707Z,4.00
2023-10-17T16:48:18.256Z,5.00
2023-10-17T16:50:44.687Z,5.00
2023-10-17T16:53:11.204Z,5.33
2023-10-17T16:55:37.620Z,4.00
2023-10-17T16:58:04.148Z,5.33
2023-10-17T17:00:30.617Z,5.00
2023-10-17T17:02:58.161Z,26.00
2023-10-17T17:05:24.767Z,17.50
2023-10-17T17:07:52.103Z,13.00
2023-10-17T17:10:18.610Z,14.00
2023-10-17T17:12:45.124Z,14.00
2023-10-17T17:15:11.727Z,17.00
2023-10-17T17:17:39.656Z,26.00
2023-10-17T17:20:06.268Z,22.50
2023-10-17T17:22:32.766Z,18.00
2023-10-17T17:24:59.453Z,17.50
2023-10-17T17:27:26.001Z,17.00
2023-10-17T17:29:52.660Z,14.50
2023-10-17T17:32:19.320Z,19.00
2023-10-17T17:34:46.784Z,20.00
2023-10-17T17:37:13.372Z,21.50
2023-10-17T17:39:40.826Z,18.67
2023-10-17T17:42:07.400Z,19.50
2023-10-17T17:50:03.630Z,20.67
2023-10-17T17:52:31.077Z,18.00
2023-10-17T17:54:57.710Z,15.00
2023-10-17T17:57:25.108Z,17.00
2023-10-17T17:59:51.803Z,13.50
2023-10-17T18:02:19.277Z,15.67
2023-10-17T18:04:46.808Z,24.67
2023-10-17T18:07:13.472Z,25.50
2023-10-17T18:09:41.012Z,24.67
2023-10-17T18:12:07.602Z,21.50
2023-10-17T18:14:35.049Z,17.00
2023-10-17T18:19:46.379Z,16.00
2023-10-17T18:22:12.945Z,20.00
2023-10-17T18:24:39.521Z,28.00
2023-10-17T18:27:06.992Z,26.00
2023-10-17T18:29:42.192Z,23.00
2023-10-17T18:34:53.790Z,16.00
2023-10-17T18:37:20.613Z,20.00
2023-10-17T18:39:48.184Z,25.67
2023-10-17T18:42:15.688Z,31.00
2023-10-17T18:44:42.274Z,31.00
2023-10-17T18:49:53.776Z,25.00
2023-10-17T18:52:27.033Z,22.00
2023-10-17T18:54:54.559Z,19.33
2023-10-17T18:57:21.131Z,21.00
2023-10-17T18:59:48.617Z,25.67
2023-10-17T19:04:59.037Z,19.50
2023-10-17T19:07:25.728Z,17.50
2023-10-17T19:09:52.334Z,16.50
2023-10-17T19:12:19.653Z,12.00
2023-10-17T19:14:47.000Z,16.67
2023-10-17T19:19:59.030Z,15.67
2023-10-17T19:22:26.357Z,13.67
2023-10-17T19:24:52.894Z,13.00
2023-10-17T19:27:19.980Z,18.00
2023-10-17T19:29:48.012Z,16.67
2023-10-17T19:34:59.252Z,43.50
2023-10-17T19:37:26.241Z,39.50
2023-10-17T19:39:52.812Z,29.50
2023-10-17T19:42:19.376Z,23.00
2023-10-17T19:44:45.970Z,24.00
2023-10-17T19:49:57.394Z,23.33
2023-10-17T19:52:24.932Z,21.33
2023-10-17T19:54:51.505Z,20.00
2023-10-17T19:57:19.011Z,20.33
2023-10-17T19:59:46.477Z,19.00
2023-10-17T20:04:57.690Z,19.67
2023-10-17T20:07:25.094Z,17.67
2023-10-17T20:09:51.658Z,18.00
2023-10-17T20:12:19.178Z,18.00
2023-10-17T20:14:45.694Z,19.00
2023-10-17T20:19:58.394Z,15.00
2023-10-17T20:22:24.956Z,13.50
2023-10-17T20:24:51.510Z,15.00
2023-10-17T20:27:18.103Z,14.00
2023-10-17T20:29:45.492Z,15.33
2023-10-17T20:34:56.826Z,15.00
2023-10-17T20:37:23.432Z,12.00
2023-10-17T20:39:49.980Z,17.50
2023-10-17T20:42:18.343Z,10.80
2023-10-17T20:44:46.879Z,12.80
2023-10-17T20:47:15.269Z,14.60
2023-10-17T20:49:41.836Z,14.00
2023-10-17T20:52:09.301Z,19.00
2023-10-17T20:54:36.658Z,13.00
2023-10-17T20:57:05.950Z,14.67
2023-10-17T20:59:32.365Z,2.00
2023-10-17T21:01:59.759Z,15.00
2023-10-17T21:04:27.272Z,17.00
2023-10-17T21:06:53.932Z,14.50
2023-10-17T21:09:21.240Z,14.67
2023-10-17T21:11:48.560Z,14.00
2023-10-17T21:14:17.715Z,0.00
2023-10-17T21:16:44.368Z,12.00
2023-10-17T21:19:11.850Z,13.33
2023-10-17T21:21:40.364Z,15.20
2023-10-17T21:24:08.911Z,13.20
2023-10-17T21:26:37.518Z,13.80
2023-10-17T21:29:04.024Z,14.50
2023-10-17T21:31:32.439Z,13.40
2023-10-17T21:33:59.973Z,13.67
2023-10-17T21:36:27.439Z,10.50
2023-10-17T21:38:54.018Z,15.00
2023-10-17T21:41:20.530Z,17.00
2023-10-17T21:43:47.143Z,12.50
2023-10-17T21:46:14.500Z,13.67
2023-10-17T21:48:41.879Z,15.67
2023-10-17T21:51:11.176Z,16.00
2023-10-17T21:53:39.013Z,15.00
2023-10-17T21:56:05.535Z,15.00
2023-10-17T21:58:32.053Z,14.00
2023-10-17T22:00:59.456Z,16.67
2023-10-17T22:03:26.996Z,12.25
2023-10-17T22:08:38.608Z,15.00
2023-10-17T22:11:06.017Z,18.67
2023-10-17T22:13:33.410Z,18.00
2023-10-17T22:16:00.015Z,19.00
2023-10-17T22:18:27.390Z,15.00
2023-10-17T22:23:39.949Z,17.33
2023-10-17T22:26:07.325Z,16.33
2023-10-17T22:28:34.800Z,17.67
2023-10-17T22:31:01.477Z,17.00
2023-10-17T22:33:28.852Z,14.67
2023-10-17T22:38:40.446Z,16.00
2023-10-17T22:41:06.935Z,17.00
2023-10-17T22:43:34.297Z,18.00
2023-10-17T22:46:01.676Z,15.67
2023-10-17T22:48:29.085Z,19.00
2023-10-17T22:53:42.249Z,16.67
2023-10-17T22:56:09.684Z,14.00
2023-10-17T22:58:36.197Z,16.00
2023-10-17T23:01:03.746Z,18.33
2023-10-17T23:03:32.354Z,18.00
2023-10-17T23:08:43.692Z,16.00
2023-10-17T23:11:10.224Z,17.00
2023-10-17T23:13:36.744Z,18.00
2023-10-17T23:16:03.393Z,20.50
2023-10-17T23:18:30.050Z,19.50
2023-10-17T23:23:42.641Z,17.33
2023-10-17T23:26:09.203Z,17.50
2023-10-17T23:28:36.642Z,18.67
2023-10-17T23:31:03.383Z,19.50
2023-10-17T23:33:29.982Z,19.00
2023-10-17T23:38:52.245Z,18.67
2023-10-17T23:41:18.747Z,14.00
2023-10-17T23:43:46.232Z,18.33
2023-10-17T23:46:12.853Z,18.00
2023-10-17T23:48:40.379Z,20.00
2023-10-17T23:53:50.491Z,18.00
2023-10-17T23:56:17.026Z,16.00
2023-10-17T23:58:45.408Z,15.20
